sensor_id;sensor_type;location;lat;lon;timestamp;P1;P2;P0
42510;PMS7003;28141;51.120;17.114;2023-03-14T00:01:55;11;4;2
42510;PMS7003;28141;51.120;17.114;2023-03-14T00:05:10;11;4;2
42510;PMS7003;28141;51.120;17.114;2023-03-14T00:08:24;11;4;2
42510;PMS7003;28141;51.120;17.114;2023-03-14T00:12:04;9;2;2
42510;PMS7003;28141;51.120;17.114;2023-03-14T00:15:20;10;4;3
42510;PMS7003;28141;51.120;17.114;2023-03-14T00:18:34;11;4;2
42510;PMS7003;28141;51.120;17.114;2023-03-14T00:21:49;10;3;2
42510;PMS7003;28141;51.120;17.114;2023-03-14T00:25:29;11;4;2
42510;PMS7003;28141;51.120;17.114;2023-03-14T00:28:43;11;3;2
42510;PMS7003;28141;51.120;17.114;2023-03-14T00:31:57;10;3;2
42510;PMS7003;28141;51.120;17.114;2023-03-14T00:35:11;11;4;2
42510;PMS7003;28141;51.120;17.114;2023-03-14T00:38:51;12;5;3
42510;PMS7003;28141;51.120;17.114;2023-03-14T00:42:06;12;5;2
42510;PMS7003;28141;51.120;17.114;2023-03-14T00:45:20;10;3;2
42510;PMS7003;28141;51.120;17.114;2023-03-14T00:48:34;10;4;3
42510;PMS7003;28141;51.120;17.114;2023-03-14T00:52:15;13;5;3
42510;PMS7003;28141;51.120;17.114;2023-03-14T00:55:29;11;5;3
42510;PMS7003;28141;51.120;17.114;2023-03-14T00:58:43;12;5;2
42510;PMS7003;28141;51.120;17.114;2023-03-14T01:01:57;11;5;3
42510;PMS7003;28141;51.120;17.114;2023-03-14T01:05:37;11;4;3
42510;PMS7003;28141;51.120;17.114;2023-03-14T01:08:52;12;3;2
42510;PMS7003;28141;51.120;17.114;2023-03-14T01:12:07;12;4;2
42510;PMS7003;28141;51.120;17.114;2023-03-14T01:15:21;11;4;2
42510;PMS7003;28141;51.120;17.114;2023-03-14T01:19:01;11;5;3
42510;PMS7003;28141;51.120;17.114;2023-03-14T01:22:15;11;5;3
42510;PMS7003;28141;51.120;17.114;2023-03-14T01:25:29;11;3;2
42510;PMS7003;28141;51.120;17.114;2023-03-14T01:28:44;11;5;3
42510;PMS7003;28141;51.120;17.114;2023-03-14T01:32:25;11;4;3
42510;PMS7003;28141;51.120;17.114;2023-03-14T01:35:39;12;4;3
42510;PMS7003;28141;51.120;17.114;2023-03-14T01:38:53;13;5;3
42510;PMS7003;28141;51.120;17.114;2023-03-14T01:42:07;13;4;3
42510;PMS7003;28141;51.120;17.114;2023-03-14T01:49:31;11;4;3
42510;PMS7003;28141;51.120;17.114;2023-03-14T01:52:42;12;4;3
42510;PMS7003;28141;51.120;17.114;2023-03-14T01:56:28;12;4;3
42510;PMS7003;28141;51.120;17.114;2023-03-14T01:59:46;11;5;3
42510;PMS7003;28141;51.120;17.114;2023-03-14T02:03:07;13;5;2
42510;PMS7003;28141;51.120;17.114;2023-03-14T02:06:59;12;5;3
42510;PMS7003;28141;51.120;17.114;2023-03-14T02:10:19;10;3;2
42510;PMS7003;28141;51.120;17.114;2023-03-14T02:13:37;10;4;2
42510;PMS7003;28141;51.120;17.114;2023-03-14T02:17:18;12;4;3
42510;PMS7003;28141;51.120;17.114;2023-03-14T02:20:38;12;5;3
42510;PMS7003;28141;51.120;17.114;2023-03-14T02:27:52;12;5;3
42510;PMS7003;28141;51.120;17.114;2023-03-14T02:31:06;13;4;2
42510;PMS7003;28141;51.120;17.114;2023-03-14T02:34:21;11;3;2
42510;PMS7003;28141;51.120;17.114;2023-03-14T02:37:39;12;4;3
42510;PMS7003;28141;51.120;17.114;2023-03-14T02:41:26;12;5;3
42510;PMS7003;28141;51.120;17.114;2023-03-14T02:48:03;10;4;2
42510;PMS7003;28141;51.120;17.114;2023-03-14T02:51:49;12;5;3
42510;PMS7003;28141;51.120;17.114;2023-03-14T02:55:03;12;4;2
42510;PMS7003;28141;51.120;17.114;2023-03-14T02:58:18;13;4;2
42510;PMS7003;28141;51.120;17.114;2023-03-14T03:01:33;11;4;3
42510;PMS7003;28141;51.120;17.114;2023-03-14T03:05:14;11;4;3
42510;PMS7003;28141;51.120;17.114;2023-03-14T03:08:28;11;4;3
42510;PMS7003;28141;51.120;17.114;2023-03-14T03:11:42;10;3;2
42510;PMS7003;28141;51.120;17.114;2023-03-14T03:14:56;13;5;3
42510;PMS7003;28141;51.120;17.114;2023-03-14T03:18:36;12;4;2
42510;PMS7003;28141;51.120;17.114;2023-03-14T03:21:50;11;4;3
42510;PMS7003;28141;51.120;17.114;2023-03-14T03:25:04;12;5;3
42510;PMS7003;28141;51.120;17.114;2023-03-14T03:28:20;12;4;3
42510;PMS7003;28141;51.120;17.114;2023-03-14T03:32:00;12;3;2
42510;PMS7003;28141;51.120;17.114;2023-03-14T03:35:15;10;3;2
42510;PMS7003;28141;51.120;17.114;2023-03-14T03:38:29;11;4;3
42510;PMS7003;28141;51.120;17.114;2023-03-14T03:41:43;11;4;2
42510;PMS7003;28141;51.120;17.114;2023-03-14T03:45:23;11;4;3
42510;PMS7003;28141;51.120;17.114;2023-03-14T03:48:37;12;5;2
42510;PMS7003;28141;51.120;17.114;2023-03-14T03:51:51;10;4;2
42510;PMS7003;28141;51.120;17.114;2023-03-14T03:55:06;11;4;2
42510;PMS7003;28141;51.120;17.114;2023-03-14T03:58:46;11;4;3
42510;PMS7003;28141;51.120;17.114;2023-03-14T04:02:00;12;4;2
42510;PMS7003;28141;51.120;17.114;2023-03-14T04:05:14;10;3;2
42510;PMS7003;28141;51.120;17.114;2023-03-14T04:08:29;12;4;2
42510;PMS7003;28141;51.120;17.114;2023-03-14T04:12:09;12;4;3
42510;PMS7003;28141;51.120;17.114;2023-03-14T04:15:25;11;3;2
42510;PMS7003;28141;51.120;17.114;2023-03-14T04:18:39;10;4;2
42510;PMS7003;28141;51.120;17.114;2023-03-14T04:21:53;11;4;2
42510;PMS7003;28141;51.120;17.114;2023-03-14T04:25:33;10;3;2
42510;PMS7003;28141;51.120;17.114;2023-03-14T04:28:47;10;4;2
42510;PMS7003;28141;51.120;17.114;2023-03-14T04:32:01;10;4;2
42510;PMS7003;28141;51.120;17.114;2023-03-14T04:35:15;12;5;4
42510;PMS7003;28141;51.120;17.114;2023-03-14T04:38:55;13;5;3
42510;PMS7003;28141;51.120;17.114;2023-03-14T04:42:09;9;3;2
42510;PMS7003;28141;51.120;17.114;2023-03-14T04:45:23;12;4;2
42510;PMS7003;28141;51.120;17.114;2023-03-14T04:48:36;12;4;2
42510;PMS7003;28141;51.120;17.114;2023-03-14T04:52:17;11;3;2
42510;PMS7003;28141;51.120;17.114;2023-03-14T04:55:32;11;3;2
42510;PMS7003;28141;51.120;17.114;2023-03-14T04:58:47;11;4;2
42510;PMS7003;28141;51.120;17.114;2023-03-14T05:02:01;12;3;2
42510;PMS7003;28141;51.120;17.114;2023-03-14T05:05:42;9;3;2
42510;PMS7003;28141;51.120;17.114;2023-03-14T05:08:56;13;3;2
42510;PMS7003;28141;51.120;17.114;2023-03-14T05:12:10;12;4;2
42510;PMS7003;28141;51.120;17.114;2023-03-14T05:15:24;11;3;2
42510;PMS7003;28141;51.120;17.114;2023-03-14T05:19:06;10;4;2
42510;PMS7003;28141;51.120;17.114;2023-03-14T05:22:20;10;2;2
42510;PMS7003;28141;51.120;17.114;2023-03-14T05:25:34;10;2;2
42510;PMS7003;28141;51.120;17.114;2023-03-14T05:28:48;10;3;2
42510;PMS7003;28141;51.120;17.114;2023-03-14T05:32:30;10;3;2
42510;PMS7003;28141;51.120;17.114;2023-03-14T05:35:45;10;3;2
42510;PMS7003;28141;51.120;17.114;2023-03-14T05:38:59;9;3;2
42510;PMS7003;28141;51.120;17.114;2023-03-14T05:42:13;10;3;2
42510;PMS7003;28141;51.120;17.114;2023-03-14T05:45:53;10;3;2
42510;PMS7003;28141;51.120;17.114;2023-03-14T05:49:07;10;2;1
42510;PMS7003;28141;51.120;17.114;2023-03-14T05:52:21;10;2;2
42510;PMS7003;28141;51.120;17.114;2023-03-14T05:55:35;10;3;2
42510;PMS7003;28141;51.120;17.114;2023-03-14T05:59:15;9;1;1
42510;PMS7003;28141;51.120;17.114;2023-03-14T06:02:29;10;4;2
42510;PMS7003;28141;51.120;17.114;2023-03-14T06:05:43;11;3;2
42510;PMS7003;28141;51.120;17.114;2023-03-14T06:08:57;11;2;1
42510;PMS7003;28141;51.120;17.114;2023-03-14T06:12:37;8;2;1
42510;PMS7003;28141;51.120;17.114;2023-03-14T06:15:51;9;2;2
42510;PMS7003;28141;51.120;17.114;2023-03-14T06:19:05;10;3;2
42510;PMS7003;28141;51.120;17.114;2023-03-14T06:22:19;10;3;2
42510;PMS7003;28141;51.120;17.114;2023-03-14T06:26:00;10;4;2
42510;PMS7003;28141;51.120;17.114;2023-03-14T06:29:14;10;3;2
42510;PMS7003;28141;51.120;17.114;2023-03-14T06:32:28;11;3;2
42510;PMS7003;28141;51.120;17.114;2023-03-14T06:35:42;11;3;2
42510;PMS7003;28141;51.120;17.114;2023-03-14T06:39:22;11;5;3
42510;PMS7003;28141;51.120;17.114;2023-03-14T06:42:36;14;5;3
42510;PMS7003;28141;51.120;17.114;2023-03-14T06:45:50;11;4;3
42510;PMS7003;28141;51.120;17.114;2023-03-14T06:49:04;12;4;2
42510;PMS7003;28141;51.120;17.114;2023-03-14T06:52:44;11;4;3
42510;PMS7003;28141;51.120;17.114;2023-03-14T06:56:01;13;5;3
42510;PMS7003;28141;51.120;17.114;2023-03-14T06:59:15;11;4;3
42510;PMS7003;28141;51.120;17.114;2023-03-14T07:02:29;13;5;3
42510;PMS7003;28141;51.120;17.114;2023-03-14T07:06:09;11;4;3
42510;PMS7003;28141;51.120;17.114;2023-03-14T07:09:23;12;4;3
42510;PMS7003;28141;51.120;17.114;2023-03-14T07:12:36;12;5;3
42510;PMS7003;28141;51.120;17.114;2023-03-14T07:15:50;11;4;3
42510;PMS7003;28141;51.120;17.114;2023-03-14T07:19:31;12;5;3
42510;PMS7003;28141;51.120;17.114;2023-03-14T07:22:47;13;5;3
42510;PMS7003;28141;51.120;17.114;2023-03-14T07:26:02;12;5;3
42510;PMS7003;28141;51.120;17.114;2023-03-14T07:29:16;12;4;3
42510;PMS7003;28141;51.120;17.114;2023-03-14T07:32:56;11;4;3
42510;PMS7003;28141;51.120;17.114;2023-03-14T07:36:10;12;5;3
42510;PMS7003;28141;51.120;17.114;2023-03-14T07:39:24;11;4;3
42510;PMS7003;28141;51.120;17.114;2023-03-14T07:42:38;12;5;2
42510;PMS7003;28141;51.120;17.114;2023-03-14T07:46:18;12;4;2
42510;PMS7003;28141;51.120;17.114;2023-03-14T07:49:32;12;3;2
42510;PMS7003;28141;51.120;17.114;2023-03-14T07:52:46;14;5;3
42510;PMS7003;28141;51.120;17.114;2023-03-14T07:56:00;12;4;2
42510;PMS7003;28141;51.120;17.114;2023-03-14T07:59:40;10;3;2
42510;PMS7003;28141;51.120;17.114;2023-03-14T08:02:54;10;3;2
42510;PMS7003;28141;51.120;17.114;2023-03-14T08:06:08;10;3;2
42510;PMS7003;28141;51.120;17.114;2023-03-14T08:09:22;12;5;3
42510;PMS7003;28141;51.120;17.114;2023-03-14T08:13:02;11;4;2
42510;PMS7003;28141;51.120;17.114;2023-03-14T08:16:16;11;4;3
42510;PMS7003;28141;51.120;17.114;2023-03-14T08:19:31;13;5;2
42510;PMS7003;28141;51.120;17.114;2023-03-14T08:22:45;10;3;2
42510;PMS7003;28141;51.120;17.114;2023-03-14T08:26:25;10;3;1
42510;PMS7003;28141;51.120;17.114;2023-03-14T08:29:39;11;3;2
42510;PMS7003;28141;51.120;17.114;2023-03-14T08:32:56;11;4;3
42510;PMS7003;28141;51.120;17.114;2023-03-14T08:36:12;13;5;3
42510;PMS7003;28141;51.120;17.114;2023-03-14T08:39:52;12;4;2
42510;PMS7003;28141;51.120;17.114;2023-03-14T08:43:06;13;5;2
42510;PMS7003;28141;51.120;17.114;2023-03-14T08:46:20;14;7;3
42510;PMS7003;28141;51.120;17.114;2023-03-14T08:49:34;15;8;5
42510;PMS7003;28141;51.120;17.114;2023-03-14T08:53:14;15;7;3
42510;PMS7003;28141;51.120;17.114;2023-03-14T08:56:28;13;7;4
42510;PMS7003;28141;51.120;17.114;2023-03-14T08:59:42;12;5;3
42510;PMS7003;28141;51.120;17.114;2023-03-14T09:02:56;12;4;2
42510;PMS7003;28141;51.120;17.114;2023-03-14T09:06:36;13;5;3
42510;PMS7003;28141;51.120;17.114;2023-03-14T09:09:50;11;4;3
42510;PMS7003;28141;51.120;17.114;2023-03-14T09:13:04;13;5;2
42510;PMS7003;28141;51.120;17.114;2023-03-14T09:16:18;10;4;2
42510;PMS7003;28141;51.120;17.114;2023-03-14T09:20:01;12;4;3
42510;PMS7003;28141;51.120;17.114;2023-03-14T09:23:20;14;4;2
42510;PMS7003;28141;51.120;17.114;2023-03-14T09:26:34;12;5;3
42510;PMS7003;28141;51.120;17.114;2023-03-14T09:29:47;9;3;2
42510;PMS7003;28141;51.120;17.114;2023-03-14T09:33:28;13;5;3
42510;PMS7003;28141;51.120;17.114;2023-03-14T09:36:42;11;3;2
42510;PMS7003;28141;51.120;17.114;2023-03-14T09:40:00;10;3;2
42510;PMS7003;28141;51.120;17.114;2023-03-14T09:43:56;10;3;2
42510;PMS7003;28141;51.120;17.114;2023-03-14T09:47:17;11;3;2
42510;PMS7003;28141;51.120;17.114;2023-03-14T09:50:36;11;4;3
42510;PMS7003;28141;51.120;17.114;2023-03-14T09:55:10;11;4;2
42510;PMS7003;28141;51.120;17.114;2023-03-14T09:57:50;11;3;2
42510;PMS7003;28141;51.120;17.114;2023-03-14T10:01:13;11;3;2
42510;PMS7003;28141;51.120;17.114;2023-03-14T10:04:57;10;3;2
42510;PMS7003;28141;51.120;17.114;2023-03-14T10:08:12;11;3;1
42510;PMS7003;28141;51.120;17.114;2023-03-14T10:11:27;10;3;2
42510;PMS7003;28141;51.120;17.114;2023-03-14T10:18:29;9;3;1
42510;PMS7003;28141;51.120;17.114;2023-03-14T10:21:51;11;3;2
42510;PMS7003;28141;51.120;17.114;2023-03-14T10:25:19;12;4;2
42510;PMS7003;28141;51.120;17.114;2023-03-14T10:32:22;12;4;2
42510;PMS7003;28141;51.120;17.114;2023-03-14T10:35:51;10;4;2
42510;PMS7003;28141;51.120;17.114;2023-03-14T10:39:46;10;3;2
42510;PMS7003;28141;51.120;17.114;2023-03-14T10:43:01;11;5;2
42510;PMS7003;28141;51.120;17.114;2023-03-14T10:46:19;11;4;2
42510;PMS7003;28141;51.120;17.114;2023-03-14T10:53:25;10;4;3
42510;PMS7003;28141;51.120;17.114;2023-03-14T10:56:40;14;6;3
42510;PMS7003;28141;51.120;17.114;2023-03-14T10:59:55;13;6;3
42510;PMS7003;28141;51.120;17.114;2023-03-14T11:03:39;40;19;9
42510;PMS7003;28141;51.120;17.114;2023-03-14T11:07:03;40;18;8
42510;PMS7003;28141;51.120;17.114;2023-03-14T11:11:49;28;13;8
42510;PMS7003;28141;51.120;17.114;2023-03-14T11:36:31;15;6;3
42510;PMS7003;28141;51.120;17.114;2023-03-14T11:39:56;16;7;3
42510;PMS7003;28141;51.120;17.114;2023-03-14T11:43:49;13;5;4
42510;PMS7003;28141;51.120;17.114;2023-03-14T11:50:37;13;4;3
42510;PMS7003;28141;51.120;17.114;2023-03-14T11:54:29;12;5;3
42510;PMS7003;28141;51.120;17.114;2023-03-14T11:57:43;11;4;2
42510;PMS7003;28141;51.120;17.114;2023-03-14T12:01:01;13;5;3
42510;PMS7003;28141;51.120;17.114;2023-03-14T12:11:42;11;3;2
42510;PMS7003;28141;51.120;17.114;2023-03-14T12:15:36;10;4;2
42510;PMS7003;28141;51.120;17.114;2023-03-14T12:18:57;13;4;3
42510;PMS7003;28141;51.120;17.114;2023-03-14T12:26:16;10;3;2
42510;PMS7003;28141;51.120;17.114;2023-03-14T12:29:32;10;3;2
42510;PMS7003;28141;51.120;17.114;2023-03-14T12:36:52;10;4;2
42510;PMS7003;28141;51.120;17.114;2023-03-14T12:40:16;12;4;2
42510;PMS7003;28141;51.120;17.114;2023-03-14T12:43:35;11;4;2
42510;PMS7003;28141;51.120;17.114;2023-03-14T12:54:14;12;4;2
42510;PMS7003;28141;51.120;17.114;2023-03-14T12:58:00;14;5;4
42510;PMS7003;28141;51.120;17.114;2023-03-14T13:01:24;13;6;4
42510;PMS7003;28141;51.120;17.114;2023-03-14T13:04:45;13;5;3
42510;PMS7003;28141;51.120;17.114;2023-03-14T13:08:34;16;5;5
42510;PMS7003;28141;51.120;17.114;2023-03-14T13:11:58;15;6;4
42510;PMS7003;28141;51.120;17.114;2023-03-14T13:19:15;16;6;5
42510;PMS7003;28141;51.120;17.114;2023-03-14T13:22:35;17;9;6
42510;PMS7003;28141;51.120;17.114;2023-03-14T13:25:52;17;10;6
42510;PMS7003;28141;51.120;17.114;2023-03-14T13:32:59;15;8;5
42510;PMS7003;28141;51.120;17.114;2023-03-14T13:36:21;16;7;5
42510;PMS7003;28141;51.120;17.114;2023-03-14T13:39:35;14;7;4
42510;PMS7003;28141;51.120;17.114;2023-03-14T13:43:25;13;6;4
42510;PMS7003;28141;51.120;17.114;2023-03-14T13:46:44;16;5;4
42510;PMS7003;28141;51.120;17.114;2023-03-14T13:49:58;13;5;3
42510;PMS7003;28141;51.120;17.114;2023-03-14T13:53:12;11;4;3
42510;PMS7003;28141;51.120;17.114;2023-03-14T14:03:36;11;5;3
42510;PMS7003;28141;51.120;17.114;2023-03-14T14:07:19;11;4;3
42510;PMS7003;28141;51.120;17.114;2023-03-14T14:10:33;11;4;2
42510;PMS7003;28141;51.120;17.114;2023-03-14T14:13:51;13;3;2
42510;PMS7003;28141;51.120;17.114;2023-03-14T14:17:06;11;4;2
42510;PMS7003;28141;51.120;17.114;2023-03-14T14:20:51;9;3;2
42510;PMS7003;28141;51.120;17.114;2023-03-14T14:24:05;11;5;2
42510;PMS7003;28141;51.120;17.114;2023-03-14T14:31:18;11;2;2
42510;PMS7003;28141;51.120;17.114;2023-03-14T14:34:42;11;3;2
42510;PMS7003;28141;51.120;17.114;2023-03-14T14:38:08;12;3;2
42510;PMS7003;28141;51.120;17.114;2023-03-14T14:41:52;10;3;3
42510;PMS7003;28141;51.120;17.114;2023-03-14T14:45:09;12;6;3
42510;PMS7003;28141;51.120;17.114;2023-03-14T14:48:30;11;4;2
42510;PMS7003;28141;51.120;17.114;2023-03-14T14:52:18;10;4;2
42510;PMS7003;28141;51.120;17.114;2023-03-14T14:55:34;11;4;2
42510;PMS7003;28141;51.120;17.114;2023-03-14T15:02:47;10;3;2
42510;PMS7003;28141;51.120;17.114;2023-03-14T15:06:05;10;3;2
42510;PMS7003;28141;51.120;17.114;2023-03-14T15:09:19;11;4;2
42510;PMS7003;28141;51.120;17.114;2023-03-14T15:12:33;10;3;2
42510;PMS7003;28141;51.120;17.114;2023-03-14T15:16:14;11;3;2
42510;PMS7003;28141;51.120;17.114;2023-03-14T15:19:30;12;5;3
42510;PMS7003;28141;51.120;17.114;2023-03-14T15:22:46;12;4;2
42510;PMS7003;28141;51.120;17.114;2023-03-14T15:26:00;11;3;2
42510;PMS7003;28141;51.120;17.114;2023-03-14T15:29:41;10;3;2
42510;PMS7003;28141;51.120;17.114;2023-03-14T15:32:55;11;4;3
42510;PMS7003;28141;51.120;17.114;2023-03-14T15:40:04;9;3;2
42510;PMS7003;28141;51.120;17.114;2023-03-14T15:43:26;11;3;2
42510;PMS7003;28141;51.120;17.114;2023-03-14T15:46:40;10;4;3
42510;PMS7003;28141;51.120;17.114;2023-03-14T15:49:54;11;4;3
42510;PMS7003;28141;51.120;17.114;2023-03-14T15:53:34;12;4;3
42510;PMS7003;28141;51.120;17.114;2023-03-14T15:56:51;11;4;3
42510;PMS7003;28141;51.120;17.114;2023-03-14T16:00:05;10;2;2
42510;PMS7003;28141;51.120;17.114;2023-03-14T16:03:27;11;3;2
42510;PMS7003;28141;51.120;17.114;2023-03-14T16:07:08;11;5;3
42510;PMS7003;28141;51.120;17.114;2023-03-14T16:10:22;11;4;3
42510;PMS7003;28141;51.120;17.114;2023-03-14T16:13:36;12;4;2
42510;PMS7003;28141;51.120;17.114;2023-03-14T16:16:51;10;3;2
42510;PMS7003;28141;51.120;17.114;2023-03-14T16:20:33;12;4;2
42510;PMS7003;28141;51.120;17.114;2023-03-14T16:23:47;10;3;2
42510;PMS7003;28141;51.120;17.114;2023-03-14T16:27:02;11;3;2
42510;PMS7003;28141;51.120;17.114;2023-03-14T16:30:16;11;4;2
42510;PMS7003;28141;51.120;17.114;2023-03-14T16:34:00;10;3;3
42510;PMS7003;28141;51.120;17.114;2023-03-14T16:37:16;11;3;2
42510;PMS7003;28141;51.120;17.114;2023-03-14T16:40:33;11;4;2
42510;PMS7003;28141;51.120;17.114;2023-03-14T16:43:47;10;3;2
42510;PMS7003;28141;51.120;17.114;2023-03-14T16:47:32;9;3;2
42510;PMS7003;28141;51.120;17.114;2023-03-14T16:50:48;9;2;1
42510;PMS7003;28141;51.120;17.114;2023-03-14T16:54:03;11;4;2
42510;PMS7003;28141;51.120;17.114;2023-03-14T16:57:17;10;3;2
42510;PMS7003;28141;51.120;17.114;2023-03-14T17:00:31;10;2;1
42510;PMS7003;28141;51.120;17.114;2023-03-14T17:04:11;10;4;1
42510;PMS7003;28141;51.120;17.114;2023-03-14T17:07:25;10;4;2
42510;PMS7003;28141;51.120;17.114;2023-03-14T17:10:39;10;3;2
42510;PMS7003;28141;51.120;17.114;2023-03-14T17:13:54;10;2;1
42510;PMS7003;28141;51.120;17.114;2023-03-14T17:17:34;11;3;1
42510;PMS7003;28141;51.120;17.114;2023-03-14T17:20:48;11;3;2
42510;PMS7003;28141;51.120;17.114;2023-03-14T17:24:03;11;3;2
42510;PMS7003;28141;51.120;17.114;2023-03-14T17:27:17;11;4;3
42510;PMS7003;28141;51.120;17.114;2023-03-14T17:34:25;11;4;2
42510;PMS7003;28141;51.120;17.114;2023-03-14T17:37:39;10;3;2
42510;PMS7003;28141;51.120;17.114;2023-03-14T17:41:22;12;4;3
42510;PMS7003;28141;51.120;17.114;2023-03-14T17:44:36;11;4;2
42510;PMS7003;28141;51.120;17.114;2023-03-14T17:47:51;11;4;3
42510;PMS7003;28141;51.120;17.114;2023-03-14T17:51:05;12;4;2
42510;PMS7003;28141;51.120;17.114;2023-03-14T17:54:47;10;3;2
42510;PMS7003;28141;51.120;17.114;2023-03-14T17:58:00;10;4;3
42510;PMS7003;28141;51.120;17.114;2023-03-14T18:01:16;13;4;2
42510;PMS7003;28141;51.120;17.114;2023-03-14T18:04:31;12;5;3
42510;PMS7003;28141;51.120;17.114;2023-03-14T18:08:14;12;4;2
42510;PMS7003;28141;51.120;17.114;2023-03-14T18:11:28;11;4;3
42510;PMS7003;28141;51.120;17.114;2023-03-14T18:14:42;12;4;2
42510;PMS7003;28141;51.120;17.114;2023-03-14T18:17:59;10;3;2
42510;PMS7003;28141;51.120;17.114;2023-03-14T18:21:43;11;4;2
42510;PMS7003;28141;51.120;17.114;2023-03-14T18:24:59;11;5;3
42510;PMS7003;28141;51.120;17.114;2023-03-14T18:28:14;11;3;2
42510;PMS7003;28141;51.120;17.114;2023-03-14T18:31:29;12;3;2
42510;PMS7003;28141;51.120;17.114;2023-03-14T18:35:13;11;4;2
42510;PMS7003;28141;51.120;17.114;2023-03-14T18:38:27;11;5;3
42510;PMS7003;28141;51.120;17.114;2023-03-14T18:41:41;11;4;2
42510;PMS7003;28141;51.120;17.114;2023-03-14T18:44:55;12;5;2
42510;PMS7003;28141;51.120;17.114;2023-03-14T18:48:35;11;4;2
42510;PMS7003;28141;51.120;17.114;2023-03-14T18:51:57;13;5;3
42510;PMS7003;28141;51.120;17.114;2023-03-14T18:55:11;10;3;2
42510;PMS7003;28141;51.120;17.114;2023-03-14T18:58:25;13;6;3
42510;PMS7003;28141;51.120;17.114;2023-03-14T19:02:08;11;4;3
42510;PMS7003;28141;51.120;17.114;2023-03-14T19:05:23;12;4;2
42510;PMS7003;28141;51.120;17.114;2023-03-14T19:08:37;11;4;3
42510;PMS7003;28141;51.120;17.114;2023-03-14T19:11:53;12;4;2
42510;PMS7003;28141;51.120;17.114;2023-03-14T19:15:08;12;5;3
42510;PMS7003;28141;51.120;17.114;2023-03-14T19:18:52;13;6;3
42510;PMS7003;28141;51.120;17.114;2023-03-14T19:22:07;11;4;3
42510;PMS7003;28141;51.120;17.114;2023-03-14T19:25:21;13;6;4
42510;PMS7003;28141;51.120;17.114;2023-03-14T19:28:35;12;5;3
42510;PMS7003;28141;51.120;17.114;2023-03-14T19:32:17;12;5;3
42510;PMS7003;28141;51.120;17.114;2023-03-14T19:35:32;13;5;4
42510;PMS7003;28141;51.120;17.114;2023-03-14T19:38:46;13;6;4
42510;PMS7003;28141;51.120;17.114;2023-03-14T19:42:00;12;5;3
42510;PMS7003;28141;51.120;17.114;2023-03-14T19:45:40;13;6;4
42510;PMS7003;28141;51.120;17.114;2023-03-14T19:48:54;12;6;4
42510;PMS7003;28141;51.120;17.114;2023-03-14T19:52:08;13;6;3
42510;PMS7003;28141;51.120;17.114;2023-03-14T19:55:23;13;5;3
42510;PMS7003;28141;51.120;17.114;2023-03-14T19:59:04;15;7;4
42510;PMS7003;28141;51.120;17.114;2023-03-14T20:02:18;14;5;3
42510;PMS7003;28141;51.120;17.114;2023-03-14T20:05:32;11;3;2
42510;PMS7003;28141;51.120;17.114;2023-03-14T20:08:46;11;3;2
42510;PMS7003;28141;51.120;17.114;2023-03-14T20:12:28;13;5;2
42510;PMS7003;28141;51.120;17.114;2023-03-14T20:15:43;10;3;2
42510;PMS7003;28141;51.120;17.114;2023-03-14T20:18:57;11;4;3
42510;PMS7003;28141;51.120;17.114;2023-03-14T20:22:11;10;3;2
42510;PMS7003;28141;51.120;17.114;2023-03-14T20:25:52;9;2;2
42510;PMS7003;28141;51.120;17.114;2023-03-14T20:29:07;11;4;2
42510;PMS7003;28141;51.120;17.114;2023-03-14T20:32:21;11;4;2
42510;PMS7003;28141;51.120;17.114;2023-03-14T20:35:35;11;3;2
42510;PMS7003;28141;51.120;17.114;2023-03-14T20:39:17;9;2;1
42510;PMS7003;28141;51.120;17.114;2023-03-14T20:42:32;9;2;1
42510;PMS7003;28141;51.120;17.114;2023-03-14T20:49:08;8;2;1
42510;PMS7003;28141;51.120;17.114;2023-03-14T20:52:47;10;2;1
42510;PMS7003;28141;51.120;17.114;2023-03-14T20:56:01;8;2;1
42510;PMS7003;28141;51.120;17.114;2023-03-14T20:59:15;9;2;1
42510;PMS7003;28141;51.120;17.114;2023-03-14T21:02:29;9;3;1
42510;PMS7003;28141;51.120;17.114;2023-03-14T21:06:12;9;2;0
42510;PMS7003;28141;51.120;17.114;2023-03-14T21:09:26;8;2;0
42510;PMS7003;28141;51.120;17.114;2023-03-14T21:12:40;9;2;0
42510;PMS7003;28141;51.120;17.114;2023-03-14T21:15:54;8;1;0
42510;PMS7003;28141;51.120;17.114;2023-03-14T21:19:35;8;2;0
42510;PMS7003;28141;51.120;17.114;2023-03-14T21:22:49;9;2;1
42510;PMS7003;28141;51.120;17.114;2023-03-14T21:26:04;9;2;0
42510;PMS7003;28141;51.120;17.114;2023-03-14T21:29:18;9;1;1
42510;PMS7003;28141;51.120;17.114;2023-03-14T21:32:57;9;1;1
42510;PMS7003;28141;51.120;17.114;2023-03-14T21:36:12;9;1;0
42510;PMS7003;28141;51.120;17.114;2023-03-14T21:39:26;7;1;0
42510;PMS7003;28141;51.120;17.114;2023-03-14T21:42:41;7;1;1
42510;PMS7003;28141;51.120;17.114;2023-03-14T21:46:20;8;1;0
42510;PMS7003;28141;51.120;17.114;2023-03-14T21:49:34;7;0;0
42510;PMS7003;28141;51.120;17.114;2023-03-14T21:52:52;6;0;0
42510;PMS7003;28141;51.120;17.114;2023-03-14T21:56:37;7;1;0
42510;PMS7003;28141;51.120;17.114;2023-03-14T21:59:51;8;0;0
42510;PMS7003;28141;51.120;17.114;2023-03-14T22:03:05;7;0;0
42510;PMS7003;28141;51.120;17.114;2023-03-14T22:06:20;8;0;0
42510;PMS7003;28141;51.120;17.114;2023-03-14T22:09:58;8;0;0
42510;PMS7003;28141;51.120;17.114;2023-03-14T22:13:12;7;0;0
42510;PMS7003;28141;51.120;17.114;2023-03-14T22:16:27;7;1;0
42510;PMS7003;28141;51.120;17.114;2023-03-14T22:19:41;9;1;0
42510;PMS7003;28141;51.120;17.114;2023-03-14T22:23:19;8;1;0
42510;PMS7003;28141;51.120;17.114;2023-03-14T22:26:33;9;1;0
42510;PMS7003;28141;51.120;17.114;2023-03-14T22:29:47;7;1;0
42510;PMS7003;28141;51.120;17.114;2023-03-14T22:33:01;8;1;0
42510;PMS7003;28141;51.120;17.114;2023-03-14T22:36:39;7;1;0
42510;PMS7003;28141;51.120;17.114;2023-03-14T22:39:53;7;0;0
42510;PMS7003;28141;51.120;17.114;2023-03-14T22:43:07;7;0;0
42510;PMS7003;28141;51.120;17.114;2023-03-14T22:46:21;8;1;0
42510;PMS7003;28141;51.120;17.114;2023-03-14T22:50:00;7;1;0
42510;PMS7003;28141;51.120;17.114;2023-03-14T22:53:16;7;1;0
42510;PMS7003;28141;51.120;17.114;2023-03-14T22:56:30;9;0;0
42510;PMS7003;28141;51.120;17.114;2023-03-14T22:59:44;6;0;0
42510;PMS7003;28141;51.120;17.114;2023-03-14T23:03:22;6;0;0
42510;PMS7003;28141;51.120;17.114;2023-03-14T23:06:35;7;0;0
42510;PMS7003;28141;51.120;17.114;2023-03-14T23:09:50;8;1;0
42510;PMS7003;28141;51.120;17.114;2023-03-14T23:13:03;7;0;0
42510;PMS7003;28141;51.120;17.114;2023-03-14T23:16:44;7;1;0
42510;PMS7003;28141;51.120;17.114;2023-03-14T23:19:59;8;1;0
42510;PMS7003;28141;51.120;17.114;2023-03-14T23:23:13;7;0;0
42510;PMS7003;28141;51.120;17.114;2023-03-14T23:26:28;7;0;0
42510;PMS7003;28141;51.120;17.114;2023-03-14T23:30:12;7;0;0
42510;PMS7003;28141;51.120;17.114;2023-03-14T23:33:27;7;1;0
42510;PMS7003;28141;51.120;17.114;2023-03-14T23:36:43;8;1;0
42510;PMS7003;28141;51.120;17.114;2023-03-14T23:39:57;7;1;1
42510;PMS7003;28141;51.120;17.114;2023-03-14T23:43:36;8;1;0
42510;PMS7003;28141;51.120;17.114;2023-03-14T23:46:50;8;0;0